createdAt,value
2022-10-22T00:02:05.991Z,19.13
2022-10-22T00:04:51.728Z,18.13
2022-10-22T00:07:36.876Z,18.30
2022-10-22T00:10:22.731Z,18.33
2022-10-22T00:13:08.193Z,18.30
2022-10-22T00:15:53.615Z,16.25
2022-10-22T00:18:39.767Z,16.17
2022-10-22T00:21:25.843Z,16.33
2022-10-22T00:24:11.144Z,14.68
2022-10-22T00:26:56.629Z,16.50
2022-10-22T00:29:42.221Z,15.82
2022-10-22T00:32:27.450Z,15.63
2022-10-22T00:35:12.733Z,15.52
2022-10-22T00:37:58.133Z,18.00
2022-10-22T00:40:43.947Z,17.23
2022-10-22T00:43:29.156Z,15.75
2022-10-22T00:46:14.625Z,15.63
2022-10-22T00:49:04.275Z,16.17
2022-10-22T00:51:49.850Z,14.55
2022-10-22T00:54:35.704Z,17.15
2022-10-22T00:57:21.472Z,15.68
2022-10-22T01:00:07.664Z,18.10
2022-10-22T01:02:55.588Z,16.35
2022-10-22T01:08:47.537Z,16.48
2022-10-22T01:11:51.481Z,17.48
2022-10-22T01:14:45.637Z,17.75
2022-10-22T01:17:45.868Z,18.40
2022-10-22T01:20:57.465Z,19.30
2022-10-22T01:23:45.931Z,19.70
2022-10-22T01:27:00.663Z,18.15
2022-10-22T01:29:57.818Z,19.33
2022-10-22T01:32:53.777Z,17.88
2022-10-22T01:35:44.503Z,17.67
2022-10-22T01:38:30.723Z,19.65
2022-10-22T01:41:16.404Z,18.60
2022-10-22T01:44:01.696Z,18.33
2022-10-22T01:46:51.303Z,18.75
2022-10-22T01:49:43.693Z,17.67
2022-10-22T01:52:38.506Z,17.30
2022-10-22T01:55:51.244Z,16.65
2022-10-22T01:58:42.611Z,20.55
2022-10-22T02:01:48.922Z,15.68
2022-10-22T02:04:49.855Z,16.17
2022-10-22T02:07:42.632Z,18.00
2022-10-22T02:10:30.194Z,17.98
2022-10-22T02:13:24.889Z,17.38
2022-10-22T02:16:14.707Z,16.45
2022-10-22T02:19:07.904Z,17.17
2022-10-22T02:21:54.606Z,17.63
2022-10-22T02:24:40.205Z,16.23
2022-10-22T02:27:48.406Z,17.38
2022-10-22T02:30:38.609Z,16.70
2022-10-22T02:33:31.374Z,17.35
2022-10-22T02:36:18.136Z,17.25
2022-10-22T02:39:04.963Z,20.02
2022-10-22T02:41:50.403Z,16.50
2022-10-22T02:44:35.732Z,16.33
2022-10-22T02:47:21.333Z,18.10
2022-10-22T02:50:09.541Z,19.40
2022-10-22T02:52:55.775Z,16.88
2022-10-22T02:55:41.327Z,16.52
2022-10-22T02:58:26.812Z,17.42
2022-10-22T03:01:15.345Z,17.70
2022-10-22T03:04:01.704Z,18.63
2022-10-22T03:06:48.870Z,17.85
2022-10-22T03:09:34.229Z,18.40
2022-10-22T03:12:19.703Z,16.30
2022-10-22T03:15:05.493Z,18.17
2022-10-22T03:17:51.083Z,19.27
2022-10-22T03:20:36.613Z,16.05
2022-10-22T03:23:21.926Z,17.20
2022-10-22T03:26:08.982Z,17.55
2022-10-22T03:28:54.895Z,15.77
2022-10-22T03:31:40.255Z,18.73
2022-10-22T03:34:25.723Z,16.35
2022-10-22T03:37:11.656Z,18.75
2022-10-22T03:39:57.307Z,18.17
2022-10-22T03:42:43.476Z,18.45
2022-10-22T03:45:28.966Z,16.67
2022-10-22T03:48:14.568Z,17.05
2022-10-22T03:50:59.941Z,16.70
2022-10-22T03:53:45.589Z,19.52
2022-10-22T03:56:30.963Z,20.65
2022-10-22T03:59:16.918Z,18.00
2022-10-22T04:02:02.669Z,19.42
2022-10-22T04:04:47.928Z,19.00
2022-10-22T04:07:33.224Z,18.95
2022-10-22T04:10:19.112Z,20.17
2022-10-22T04:13:04.638Z,22.13
2022-10-22T04:15:52.092Z,20.63
2022-10-22T04:18:38.969Z,20.45
2022-10-22T04:21:25.442Z,17.73
2022-10-22T04:24:10.907Z,18.25
2022-10-22T04:26:56.732Z,18.08
2022-10-22T04:29:42.293Z,17.15
2022-10-22T04:32:28.446Z,18.23
2022-10-22T04:35:14.348Z,18.50
2022-10-22T04:37:59.787Z,18.20
2022-10-22T04:40:45.196Z,19.02
2022-10-22T04:43:30.987Z,16.27
2022-10-22T04:46:18.546Z,18.38
2022-10-22T04:51:50.474Z,16.92
2022-10-22T04:54:36.058Z,17.17
2022-10-22T04:57:21.264Z,17.65
2022-10-22T05:00:07.838Z,21.35
2022-10-22T05:02:53.113Z,19.98
2022-10-22T05:05:38.858Z,21.38
2022-10-22T05:08:24.016Z,22.63
2022-10-22T05:11:12.462Z,20.77
2022-10-22T05:14:00.047Z,20.90
2022-10-22T05:16:48.926Z,18.17
2022-10-22T05:19:34.943Z,20.40
2022-10-22T05:22:20.186Z,23.40
2022-10-22T05:25:06.102Z,22.30
2022-10-22T05:27:51.753Z,22.27
2022-10-22T05:30:38.186Z,22.65
2022-10-22T05:33:24.193Z,22.73
2022-10-22T05:36:13.407Z,21.90
2022-10-22T05:38:59.237Z,22.73
2022-10-22T05:41:44.863Z,22.45
2022-10-22T05:44:30.516Z,23.30
2022-10-22T05:47:16.103Z,21.33
2022-10-22T05:50:01.918Z,19.15
2022-10-22T05:52:47.103Z,18.75
2022-10-22T05:55:37.244Z,16.63
2022-10-22T05:58:22.882Z,16.17
2022-10-22T06:01:13.036Z,17.80
2022-10-22T06:04:00.675Z,18.05
2022-10-22T06:06:53.614Z,20.95
2022-10-22T06:09:39.717Z,21.65
2022-10-22T06:12:26.734Z,38.60
2022-10-22T06:15:13.434Z,28.52
2022-10-22T06:17:59.012Z,22.52
2022-10-22T06:20:45.525Z,22.00
2022-10-22T06:23:31.165Z,21.95
2022-10-22T06:26:17.910Z,19.20
2022-10-22T06:29:04.192Z,18.97
2022-10-22T06:31:49.899Z,18.90
2022-10-22T06:34:35.683Z,20.10
2022-10-22T06:37:21.261Z,7.28
2022-10-22T06:40:07.407Z,4.03
2022-10-22T06:42:53.112Z,11.93
2022-10-22T06:45:39.814Z,11.48
2022-10-22T06:48:25.376Z,7.60
2022-10-22T06:51:12.222Z,6.85
2022-10-22T06:53:58.738Z,5.60
2022-10-22T06:56:44.561Z,6.07
2022-10-22T06:59:29.934Z,5.35
2022-10-22T07:02:15.466Z,3.58
2022-10-22T07:05:00.839Z,3.75
2022-10-22T07:07:46.659Z,4.85
2022-10-22T07:10:32.371Z,9.75
2022-10-22T07:13:18.034Z,136.82
2022-10-22T07:16:05.043Z,198.27
2022-10-22T07:18:50.980Z,39.25
2022-10-22T07:21:36.772Z,72.20
2022-10-22T07:24:22.523Z,19.15
2022-10-22T07:27:10.874Z,19.67
2022-10-22T07:30:01.097Z,18.13
2022-10-22T07:32:46.287Z,4.60
2022-10-22T07:35:32.228Z,9.02
2022-10-22T07:38:17.592Z,4.50
2022-10-22T07:41:03.450Z,10.38
2022-10-22T07:43:49.316Z,15.25
2022-10-22T07:46:35.408Z,8.15
2022-10-22T07:49:20.889Z,34.55
2022-10-22T07:52:07.945Z,11.70
2022-10-22T07:54:53.514Z,19.17
2022-10-22T07:57:39.220Z,3.63
2022-10-22T08:00:25.479Z,3.63
2022-10-22T08:03:12.315Z,3.58
2022-10-22T08:05:58.836Z,2.17
2022-10-22T08:08:46.307Z,10.05
2022-10-22T08:11:33.599Z,8.73
2022-10-22T08:14:19.232Z,2.30
2022-10-22T08:17:04.793Z,1.65
2022-10-22T08:19:50.465Z,2.22
2022-10-22T08:22:36.210Z,1.13
2022-10-22T08:25:21.576Z,1.70
2022-10-22T08:28:07.212Z,1.35
2022-10-22T08:30:52.604Z,6.43
2022-10-22T08:33:39.088Z,1.80
2022-10-22T08:36:24.471Z,3.33
2022-10-22T08:39:10.026Z,1.15
2022-10-22T08:42:29.140Z,1.27
2022-10-22T08:45:35.991Z,1.48
2022-10-22T08:48:38.649Z,1.75
2022-10-22T08:51:33.111Z,2.10
2022-10-22T08:54:24.454Z,2.00
2022-10-22T08:57:19.117Z,1.90
2022-10-22T09:00:07.013Z,2.33
2022-10-22T09:03:17.025Z,2.28
2022-10-22T09:06:08.387Z,2.47
2022-10-22T09:08:56.729Z,3.00
2022-10-22T09:11:46.485Z,4.10
2022-10-22T09:14:32.357Z,3.33
2022-10-22T09:17:29.554Z,11.07
2022-10-22T09:20:28.729Z,1.97
2022-10-22T09:23:24.654Z,2.80
2022-10-22T09:26:15.299Z,4.00
2022-10-22T09:29:01.961Z,6.13
2022-10-22T09:31:47.378Z,10.23
2022-10-22T09:34:33.898Z,2.60
2022-10-22T09:37:25.755Z,6.53
2022-10-22T09:40:15.156Z,15.50
2022-10-22T09:43:01.027Z,9.63
2022-10-22T09:45:48.070Z,10.68
2022-10-22T09:48:37.425Z,1.77
2022-10-22T09:51:44.021Z,2.33
2022-10-22T09:54:32.535Z,2.95
2022-10-22T09:57:22.206Z,2.35
2022-10-22T10:00:10.189Z,3.75
2022-10-22T10:02:59.061Z,1.42
2022-10-22T10:05:48.928Z,2.00
2022-10-22T10:08:34.600Z,1.20
2022-10-22T10:11:28.063Z,3.90
2022-10-22T10:14:26.212Z,1.10
2022-10-22T10:17:27.290Z,1.73
2022-10-22T10:20:27.946Z,7.00
2022-10-22T10:23:37.695Z,10.32
2022-10-22T10:26:58.598Z,5.43
2022-10-22T10:30:06.679Z,9.18
2022-10-22T10:33:21.629Z,3.38
2022-10-22T10:36:28.276Z,3.00
2022-10-22T10:39:33.951Z,2.90
2022-10-22T10:42:55.978Z,3.28
2022-10-22T10:46:07.943Z,3.03
2022-10-22T10:48:59.361Z,2.95
2022-10-22T10:52:06.361Z,2.95
2022-10-22T10:55:09.692Z,3.00
2022-10-22T10:58:01.280Z,3.10
2022-10-22T11:00:56.686Z,4.70
2022-10-22T11:04:06.337Z,2.80
2022-10-22T11:07:10.789Z,3.03
2022-10-22T11:10:27.792Z,3.58
2022-10-22T11:13:16.032Z,3.35
2022-10-22T11:16:46.567Z,3.10
2022-10-22T11:19:50.965Z,2.75
2022-10-22T11:23:18.297Z,2.90
2022-10-22T11:26:11.503Z,3.63
2022-10-22T11:29:00.275Z,3.80
2022-10-22T11:31:46.474Z,4.63
2022-10-22T11:34:50.400Z,4.00
2022-10-22T11:37:39.149Z,3.83
2022-10-22T11:40:38.589Z,4.85
2022-10-22T11:43:28.466Z,4.32
2022-10-22T11:46:17.019Z,7.07
2022-10-22T11:49:19.109Z,3.35
2022-10-22T11:52:25.508Z,2.75
2022-10-22T11:55:48.572Z,5.13
2022-10-22T11:58:50.777Z,2.95
2022-10-22T12:01:43.199Z,4.70
2022-10-22T12:04:42.037Z,2.75
2022-10-22T12:07:49.516Z,4.00
2022-10-22T12:10:49.587Z,2.42
2022-10-22T12:13:52.631Z,4.68
2022-10-22T12:17:01.223Z,2.00
2022-10-22T12:20:11.214Z,6.80
2022-10-22T12:22:58.932Z,2.15
2022-10-22T12:25:44.077Z,2.15
2022-10-22T12:28:29.513Z,5.82
2022-10-22T12:31:16.831Z,6.47
2022-10-22T12:36:49.915Z,5.05
2022-10-22T12:39:35.697Z,3.47
2022-10-22T12:42:23.831Z,1.85
2022-10-22T12:48:14.556Z,2.05
2022-10-22T12:51:02.465Z,1.73
2022-10-22T12:53:51.649Z,1.58
2022-10-22T12:56:38.029Z,1.90
2022-10-22T12:59:35.446Z,2.33
2022-10-22T13:02:27.924Z,7.47
2022-10-22T13:05:39.177Z,1.30
2022-10-22T13:08:28.677Z,3.25
2022-10-22T13:11:14.166Z,1.63
2022-10-22T13:14:04.682Z,4.65
2022-10-22T13:17:05.878Z,3.05
2022-10-22T13:19:54.813Z,4.35
2022-10-22T13:22:42.270Z,6.05
2022-10-22T13:25:34.039Z,2.13
2022-10-22T13:28:21.767Z,2.22
2022-10-22T13:31:17.356Z,7.20
2022-10-22T13:34:09.831Z,1.77
2022-10-22T13:36:57.315Z,2.72
2022-10-22T13:39:42.857Z,1.90
2022-10-22T13:42:28.548Z,2.78
2022-10-22T13:45:15.171Z,2.15
2022-10-22T13:48:00.650Z,5.00
2022-10-22T13:50:45.823Z,2.30
2022-10-22T13:53:31.573Z,3.08
2022-10-22T13:56:18.288Z,2.90
2022-10-22T13:59:03.717Z,1.40
2022-10-22T14:01:49.297Z,2.35
2022-10-22T14:04:37.226Z,2.30
2022-10-22T14:10:33.902Z,1.40
2022-10-22T14:13:20.864Z,2.17
2022-10-22T14:16:19.027Z,1.15
2022-10-22T14:19:07.044Z,1.30
2022-10-22T14:21:52.598Z,1.15
2022-10-22T14:24:38.004Z,1.35
2022-10-22T14:27:23.509Z,1.38
2022-10-22T14:30:09.737Z,1.40
2022-10-22T14:32:54.874Z,1.42
2022-10-22T14:35:40.388Z,1.13
2022-10-22T14:38:26.078Z,1.30
2022-10-22T14:41:23.385Z,1.17
2022-10-22T14:44:14.525Z,1.50
2022-10-22T14:47:00.514Z,1.23
2022-10-22T14:49:45.901Z,1.27
2022-10-22T14:52:31.384Z,1.30
2022-10-22T14:55:18.483Z,1.30
2022-10-22T14:58:04.309Z,1.27
2022-10-22T15:00:50.015Z,1.40
2022-10-22T15:03:36.313Z,1.63
2022-10-22T15:06:22.129Z,1.90
2022-10-22T15:09:07.432Z,1.65
2022-10-22T15:11:53.311Z,1.40
2022-10-22T15:14:38.924Z,1.42
2022-10-22T15:17:24.355Z,1.83
2022-10-22T15:20:09.989Z,2.13
2022-10-22T15:22:56.237Z,1.52
2022-10-22T15:25:43.923Z,1.52
2022-10-22T15:31:15.560Z,2.00
2022-10-22T15:34:01.916Z,1.80
2022-10-22T15:36:47.689Z,2.33
2022-10-22T15:39:33.781Z,1.90
2022-10-22T15:42:19.465Z,2.03
2022-10-22T15:45:05.190Z,1.67
2022-10-22T15:47:50.926Z,2.00
2022-10-22T15:50:39.503Z,1.80
2022-10-22T15:53:25.182Z,4.35
2022-10-22T15:56:12.148Z,4.53
2022-10-22T15:59:00.629Z,2.83
2022-10-22T16:01:46.257Z,2.80
2022-10-22T16:04:31.484Z,2.42
2022-10-22T16:07:19.876Z,3.00
2022-10-22T16:10:08.241Z,3.40
2022-10-22T16:12:54.714Z,3.65
2022-10-22T16:15:40.137Z,3.70
2022-10-22T16:18:25.944Z,4.20
2022-10-22T16:21:15.195Z,8.40
2022-10-22T16:24:06.000Z,5.82
2022-10-22T16:26:53.311Z,7.88
2022-10-22T16:29:39.546Z,5.38
2022-10-22T16:32:25.134Z,7.85
2022-10-22T16:35:10.820Z,6.15
2022-10-22T16:37:56.198Z,4.90
2022-10-22T16:40:43.046Z,6.15
2022-10-22T16:43:29.478Z,6.43
2022-10-22T16:46:17.366Z,5.97
2022-10-22T16:51:48.236Z,4.85
2022-10-22T16:54:33.612Z,5.90
2022-10-22T16:57:19.036Z,5.65
2022-10-22T17:00:05.748Z,5.72
2022-10-22T17:02:53.385Z,3.88
2022-10-22T17:05:38.843Z,6.18
2022-10-22T17:08:24.221Z,8.65
2022-10-22T17:11:12.459Z,6.93
2022-10-22T17:13:58.476Z,8.52
2022-10-22T17:16:44.923Z,22.90
2022-10-22T17:19:30.594Z,22.63
2022-10-22T17:22:18.386Z,18.90
2022-10-22T17:25:30.075Z,15.13
2022-10-22T17:28:15.563Z,12.95
2022-10-22T17:31:32.577Z,12.50
2022-10-22T17:34:18.219Z,11.15
2022-10-22T17:37:03.754Z,11.15
2022-10-22T17:39:49.131Z,9.20
2022-10-22T17:42:34.819Z,10.75
2022-10-22T17:45:20.475Z,11.80
2022-10-22T17:48:06.209Z,11.85
2022-10-22T17:50:53.640Z,11.20
2022-10-22T17:53:43.138Z,9.10
2022-10-22T17:56:32.758Z,6.22
2022-10-22T17:59:19.160Z,5.30
2022-10-22T18:02:04.927Z,4.65
2022-10-22T18:04:52.519Z,4.15
2022-10-22T18:07:38.206Z,4.28
2022-10-22T18:10:24.438Z,5.90
2022-10-22T18:13:09.929Z,10.25
2022-10-22T18:15:56.392Z,13.52
2022-10-22T18:18:44.993Z,6.47
2022-10-22T18:21:30.635Z,15.07
2022-10-22T18:24:16.820Z,10.88
2022-10-22T18:27:02.943Z,5.53
2022-10-22T18:29:51.708Z,5.95
2022-10-22T18:32:37.337Z,4.80
2022-10-22T18:35:22.431Z,5.10
2022-10-22T18:38:09.089Z,5.75
2022-10-22T18:40:54.374Z,5.93
2022-10-22T18:43:39.776Z,4.95
2022-10-22T18:46:26.533Z,5.53
2022-10-22T18:49:18.309Z,4.72
2022-10-22T18:52:04.016Z,5.57
2022-10-22T18:54:49.713Z,4.97
2022-10-22T18:57:35.244Z,6.35
2022-10-22T19:00:20.634Z,4.82
2022-10-22T19:03:06.230Z,4.90
2022-10-22T19:05:54.266Z,4.25
2022-10-22T19:08:42.298Z,5.03
2022-10-22T19:11:28.152Z,4.93
2022-10-22T19:14:14.994Z,4.57
2022-10-22T19:17:00.601Z,5.40
2022-10-22T19:19:46.072Z,6.47
2022-10-22T19:22:32.076Z,6.43
2022-10-22T19:25:17.350Z,5.22
2022-10-22T19:28:02.829Z,5.65
2022-10-22T19:30:48.269Z,5.60
2022-10-22T19:33:35.421Z,5.80
2022-10-22T19:36:24.349Z,6.40
2022-10-22T19:39:09.923Z,4.85
2022-10-22T19:41:58.212Z,5.43
2022-10-22T19:44:43.819Z,5.13
2022-10-22T19:47:29.387Z,5.05
2022-10-22T19:50:14.700Z,4.85
2022-10-22T19:53:01.563Z,4.05
2022-10-22T19:55:47.303Z,6.40
2022-10-22T19:58:33.144Z,6.65
2022-10-22T20:01:20.027Z,6.80
2022-10-22T20:04:05.400Z,5.43
2022-10-22T20:06:51.928Z,5.32
2022-10-22T20:09:37.301Z,4.82
2022-10-22T20:12:23.118Z,5.95
2022-10-22T20:15:09.482Z,3.85
2022-10-22T20:17:55.264Z,4.35
2022-10-22T20:20:40.594Z,4.22
2022-10-22T20:23:25.740Z,5.53
2022-10-22T20:26:12.735Z,4.97
2022-10-22T20:28:58.488Z,5.90
2022-10-22T20:31:43.832Z,5.95
2022-10-22T20:34:29.427Z,5.18
2022-10-22T20:37:14.891Z,5.75
2022-10-22T20:40:00.435Z,4.60
2022-10-22T20:42:47.311Z,6.22
2022-10-22T20:45:32.878Z,4.53
2022-10-22T20:48:18.440Z,4.97
2022-10-22T20:51:05.137Z,7.47
2022-10-22T20:53:50.536Z,10.95
2022-10-22T20:56:39.799Z,10.63
2022-10-22T20:59:32.511Z,8.65
2022-10-22T21:02:18.451Z,9.95
2022-10-22T21:05:04.170Z,8.48
2022-10-22T21:07:49.880Z,6.55
2022-10-22T21:10:36.029Z,9.60
2022-10-22T21:13:21.455Z,10.25
2022-10-22T21:16:11.729Z,9.15
2022-10-22T21:18:57.482Z,9.60
2022-10-22T21:21:42.948Z,8.88
2022-10-22T21:24:28.575Z,8.75
2022-10-22T21:27:13.873Z,10.85
2022-10-22T21:29:59.509Z,7.47
2022-10-22T21:32:44.874Z,7.07
2022-10-22T21:35:32.535Z,9.07
2022-10-22T21:38:18.347Z,6.00
2022-10-22T21:41:10.261Z,6.18
2022-10-22T21:43:56.511Z,5.22
2022-10-22T21:46:41.974Z,6.00
2022-10-22T21:49:27.702Z,4.90
2022-10-22T21:52:13.174Z,4.25
2022-10-22T21:54:58.699Z,5.30
2022-10-22T21:57:44.573Z,4.25
2022-10-22T22:00:30.078Z,4.63
2022-10-22T22:03:15.525Z,4.72
2022-10-22T22:06:02.373Z,4.72
2022-10-22T22:08:48.325Z,4.10
2022-10-22T22:11:34.098Z,4.47
2022-10-22T22:14:19.869Z,3.83
2022-10-22T22:17:05.388Z,3.67
2022-10-22T22:19:50.660Z,4.03
2022-10-22T22:22:36.856Z,4.50
2022-10-22T22:25:22.133Z,4.53
2022-10-22T22:28:07.552Z,5.25
2022-10-22T22:30:53.063Z,4.97
2022-10-22T22:33:38.429Z,5.00
2022-10-22T22:36:24.072Z,6.50
2022-10-22T22:39:13.786Z,4.28
2022-10-22T22:41:59.007Z,5.47
2022-10-22T22:44:44.507Z,4.22
2022-10-22T22:47:30.289Z,5.10
2022-10-22T22:50:15.561Z,4.63
2022-10-22T22:53:01.099Z,5.25
2022-10-22T22:55:46.536Z,5.07
2022-10-22T22:58:32.135Z,4.72
2022-10-22T23:01:26.906Z,5.70
2022-10-22T23:04:16.509Z,4.30
2022-10-22T23:07:02.255Z,4.90
2022-10-22T23:09:47.669Z,4.53
2022-10-22T23:12:33.044Z,5.70
2022-10-22T23:15:18.370Z,5.57
2022-10-22T23:18:04.051Z,4.57
2022-10-22T23:20:50.046Z,4.95
2022-10-22T23:23:35.381Z,5.32
2022-10-22T23:26:24.122Z,5.05
2022-10-22T23:29:19.319Z,6.25
2022-10-22T23:32:08.030Z,4.70
2022-10-22T23:34:54.865Z,4.78
2022-10-22T23:37:40.530Z,5.80
2022-10-22T23:40:26.366Z,4.95
2022-10-22T23:43:11.939Z,5.85
2022-10-22T23:45:57.561Z,9.35
2022-10-22T23:48:43.189Z,7.28
2022-10-22T23:51:28.923Z,5.60
2022-10-22T23:54:15.996Z,5.32
2022-10-22T23:57:01.753Z,4.82
2022-10-22T23:59:47.144Z,5.20
